createdAt,value
2018-08-30T00:00:34.896Z,17.59
2018-08-30T00:01:34.910Z,17.58
2018-08-30T00:02:34.926Z,17.44
2018-08-30T00:03:34.943Z,17.51
2018-08-30T00:04:34.966Z,17.38
2018-08-30T00:05:35.010Z,17.41
2018-08-30T00:06:35.002Z,17.31
2018-08-30T00:07:35.005Z,17.36
2018-08-30T00:08:35.022Z,17.19
2018-08-30T00:09:35.034Z,17.07
2018-08-30T00:10:35.050Z,17.07
2018-08-30T00:11:35.095Z,17.07
2018-08-30T00:12:35.081Z,17.04
2018-08-30T00:13:35.193Z,17.07
2018-08-30T00:14:35.115Z,17.16
2018-08-30T00:15:35.128Z,17.15
2018-08-30T00:16:35.143Z,17.26
2018-08-30T00:17:35.158Z,17.26
2018-08-30T00:18:35.175Z,17.25
2018-08-30T00:19:35.194Z,17.28
2018-08-30T00:20:35.208Z,17.18
2018-08-30T00:21:35.222Z,17.22
2018-08-30T00:22:35.236Z,17.07
2018-08-30T00:23:35.252Z,17.18
2018-08-30T00:24:35.265Z,17.22
2018-08-30T00:25:35.289Z,17.19
2018-08-30T00:26:35.300Z,17.23
2018-08-30T00:27:35.312Z,17.16
2018-08-30T00:28:35.333Z,17.22
2018-08-30T00:29:35.344Z,17.23
2018-08-30T00:30:35.362Z,17.21
2018-08-30T00:31:35.374Z,17.22
2018-08-30T00:32:35.389Z,17.15
2018-08-30T00:33:35.504Z,17.26
2018-08-30T00:34:35.420Z,17.19
2018-08-30T00:35:35.435Z,17.18
2018-08-30T00:36:35.451Z,17.21
2018-08-30T00:37:35.465Z,17.19
2018-08-30T00:38:35.500Z,17.12
2018-08-30T00:39:35.516Z,17.19
2018-08-30T00:40:35.515Z,17.04
2018-08-30T00:41:35.527Z,17.04
2018-08-30T00:42:35.543Z,16.98
2018-08-30T00:43:35.559Z,16.93
2018-08-30T00:44:35.578Z,16.96
2018-08-30T00:45:35.589Z,16.85
2018-08-30T00:46:35.611Z,16.85
2018-08-30T00:47:35.620Z,16.89
2018-08-30T00:48:35.637Z,16.91
2018-08-30T00:49:35.649Z,16.68
2018-08-30T00:50:35.665Z,16.64
2018-08-30T00:51:35.682Z,16.57
2018-08-30T00:52:35.702Z,16.50
2018-08-30T00:53:35.713Z,16.48
2018-08-30T00:54:35.727Z,16.46
2018-08-30T00:55:35.746Z,16.43
2018-08-30T00:56:35.759Z,16.48
2018-08-30T00:57:35.772Z,16.41
2018-08-30T00:58:35.792Z,16.38
2018-08-30T00:59:35.805Z,16.30
2018-08-30T01:00:35.842Z,16.20
2018-08-30T01:01:35.833Z,16.24
2018-08-30T01:02:35.850Z,16.08
2018-08-30T01:03:35.863Z,16.14
2018-08-30T01:04:35.880Z,16.07
2018-08-30T01:05:35.900Z,16.15
2018-08-30T01:06:35.909Z,16.05
2018-08-30T01:07:35.924Z,16.09
2018-08-30T01:08:35.945Z,16.12
2018-08-30T01:09:35.954Z,16.15
2018-08-30T01:10:35.970Z,16.07
2018-08-30T01:11:35.988Z,16.21
2018-08-30T01:12:36.000Z,16.17
2018-08-30T01:13:36.031Z,16.04
2018-08-30T01:14:36.082Z,16.08
2018-08-30T01:15:36.045Z,16.21
2018-08-30T01:16:36.064Z,16.12
2018-08-30T01:17:36.104Z,16.09
2018-08-30T01:18:36.089Z,16.08
2018-08-30T01:19:36.106Z,16.00
2018-08-30T01:20:36.126Z,15.94
2018-08-30T01:21:36.136Z,15.94
2018-08-30T01:22:36.167Z,16.08
2018-08-30T01:23:36.169Z,16.08
2018-08-30T01:24:36.186Z,16.05
2018-08-30T01:25:36.199Z,16.08
2018-08-30T01:26:36.209Z,16.02
2018-08-30T01:27:36.225Z,16.08
2018-08-30T01:28:36.242Z,16.07
2018-08-30T01:29:36.255Z,16.08
2018-08-30T01:30:36.269Z,16.08
2018-08-30T01:31:36.286Z,16.01
2018-08-30T01:32:36.307Z,16.05
2018-08-30T01:33:36.319Z,16.11
2018-08-30T01:34:36.336Z,16.04
2018-08-30T01:35:36.349Z,15.87
2018-08-30T01:36:36.363Z,15.93
2018-08-30T01:37:36.378Z,15.97
2018-08-30T01:38:36.392Z,16.04
2018-08-30T01:39:36.408Z,16.07
2018-08-30T01:40:36.425Z,16.08
2018-08-30T01:41:36.437Z,16.02
2018-08-30T01:42:36.452Z,16.09
2018-08-30T01:43:36.467Z,15.96
2018-08-30T01:44:36.485Z,15.92
2018-08-30T01:45:36.499Z,15.93
2018-08-30T01:46:36.513Z,15.89
2018-08-30T01:47:36.629Z,15.89
2018-08-30T01:48:36.621Z,15.89
2018-08-30T01:49:36.561Z,15.97
2018-08-30T01:50:36.578Z,15.96
2018-08-30T01:51:36.590Z,16.00
2018-08-30T01:52:36.608Z,16.04
2018-08-30T01:53:36.621Z,16.02
2018-08-30T01:54:36.683Z,16.04
2018-08-30T01:55:36.655Z,16.07
2018-08-30T01:56:36.665Z,16.00
2018-08-30T01:57:36.677Z,16.00
2018-08-30T01:58:36.693Z,16.09
2018-08-30T01:59:36.722Z,16.04
2018-08-30T02:00:36.724Z,16.21
2018-08-30T02:01:36.739Z,16.08
2018-08-30T02:02:36.752Z,16.21
2018-08-30T02:03:36.769Z,16.08
2018-08-30T02:04:36.789Z,16.07
2018-08-30T02:05:36.801Z,16.02
2018-08-30T02:06:36.820Z,16.02
2018-08-30T02:07:36.838Z,16.14
2018-08-30T02:08:36.845Z,16.23
2018-08-30T02:09:36.865Z,16.20
2018-08-30T02:10:36.874Z,16.23
2018-08-30T02:11:36.889Z,16.12
2018-08-30T02:12:36.906Z,16.11
2018-08-30T02:13:36.924Z,16.15
2018-08-30T02:14:36.937Z,16.07
2018-08-30T02:15:36.958Z,16.04
2018-08-30T02:16:37.000Z,16.15
2018-08-30T02:17:36.980Z,16.04
2018-08-30T02:18:36.996Z,16.09
2018-08-30T02:19:37.025Z,16.07
2018-08-30T02:20:37.039Z,16.07
2018-08-30T02:21:37.048Z,16.23
2018-08-30T02:22:37.061Z,16.11
2018-08-30T02:23:37.073Z,16.15
2018-08-30T02:24:37.086Z,16.25
2018-08-30T02:25:37.099Z,16.17
2018-08-30T02:26:37.115Z,16.20
2018-08-30T02:27:37.139Z,16.21
2018-08-30T02:28:37.149Z,16.34
2018-08-30T02:29:37.165Z,16.31
2018-08-30T02:30:37.183Z,16.30
2018-08-30T02:31:37.197Z,16.28
2018-08-30T02:32:37.207Z,16.23
2018-08-30T02:33:37.224Z,16.23
2018-08-30T02:34:37.240Z,16.23
2018-08-30T02:35:37.254Z,16.17
2018-08-30T02:36:37.277Z,16.20
2018-08-30T02:37:37.286Z,16.20
2018-08-30T02:38:37.301Z,16.27
2018-08-30T02:39:37.312Z,16.24
2018-08-30T02:40:37.336Z,16.35
2018-08-30T02:41:37.344Z,16.39
2018-08-30T02:42:37.359Z,16.48
2018-08-30T02:43:37.376Z,16.43
2018-08-30T02:44:37.389Z,16.52
2018-08-30T02:45:37.403Z,16.46
2018-08-30T02:46:37.419Z,16.52
2018-08-30T02:47:37.435Z,16.56
2018-08-30T02:48:37.451Z,16.43
2018-08-30T02:49:37.465Z,16.35
2018-08-30T02:50:37.482Z,16.45
2018-08-30T02:51:37.495Z,16.33
2018-08-30T02:52:37.534Z,16.39
2018-08-30T02:53:37.524Z,16.45
2018-08-30T02:54:37.543Z,16.38
2018-08-30T02:55:37.556Z,16.38
2018-08-30T02:56:37.572Z,16.31
2018-08-30T02:57:37.587Z,16.17
2018-08-30T02:58:37.616Z,16.30
2018-08-30T02:59:37.616Z,16.31
2018-08-30T03:00:37.633Z,16.41
2018-08-30T03:01:37.651Z,16.33
2018-08-30T03:02:37.664Z,16.39
2018-08-30T03:03:37.677Z,16.41
2018-08-30T03:04:37.696Z,16.33
2018-08-30T03:05:37.707Z,16.38
2018-08-30T03:06:37.727Z,16.35
2018-08-30T03:07:37.737Z,16.38
2018-08-30T03:08:37.754Z,16.38
2018-08-30T03:09:37.780Z,16.35
2018-08-30T03:10:37.783Z,16.45
2018-08-30T03:11:37.821Z,16.35
2018-08-30T03:12:38.016Z,16.33
2018-08-30T03:13:37.835Z,16.38
2018-08-30T03:14:37.847Z,16.42
2018-08-30T03:15:37.870Z,16.39
2018-08-30T03:16:37.874Z,16.35
2018-08-30T03:17:37.890Z,16.39
2018-08-30T03:18:37.906Z,16.49
2018-08-30T03:19:37.920Z,16.39
2018-08-30T03:20:37.937Z,16.46
2018-08-30T03:21:37.950Z,16.43
2018-08-30T03:22:37.995Z,16.46
2018-08-30T03:23:37.980Z,16.45
2018-08-30T03:24:38.002Z,16.52
2018-08-30T03:25:38.012Z,16.46
2018-08-30T03:26:38.036Z,16.50
2018-08-30T03:27:38.046Z,16.45
2018-08-30T03:28:38.061Z,16.45
2018-08-30T03:29:38.073Z,16.49
2018-08-30T03:30:38.167Z,16.49
2018-08-30T03:31:38.112Z,16.45
2018-08-30T03:32:38.116Z,16.53
2018-08-30T03:33:38.131Z,16.52
2018-08-30T03:34:38.152Z,16.49
2018-08-30T03:35:38.168Z,16.49
2018-08-30T03:36:38.180Z,16.48
2018-08-30T03:37:38.192Z,16.49
2018-08-30T03:38:38.209Z,16.46
2018-08-30T03:39:38.226Z,16.38
2018-08-30T03:40:38.238Z,16.41
2018-08-30T03:41:38.254Z,16.46
2018-08-30T03:42:38.272Z,16.43
2018-08-30T03:43:38.284Z,16.42
2018-08-30T03:44:38.302Z,16.43
2018-08-30T03:45:38.314Z,16.45
2018-08-30T03:46:38.335Z,16.48
2018-08-30T03:47:38.347Z,16.50
2018-08-30T03:48:38.368Z,16.50
2018-08-30T03:49:38.382Z,16.48
2018-08-30T03:50:38.390Z,16.45
2018-08-30T03:51:38.407Z,16.49
2018-08-30T03:52:38.456Z,16.34
2018-08-30T03:53:38.454Z,16.34
2018-08-30T03:54:38.521Z,16.39
2018-08-30T03:55:38.477Z,16.39
2018-08-30T03:56:38.482Z,16.39
2018-08-30T03:57:38.497Z,16.39
2018-08-30T03:58:38.511Z,16.41
2018-08-30T03:59:38.535Z,16.42
2018-08-30T04:00:38.545Z,16.33
2018-08-30T04:01:38.557Z,16.39
2018-08-30T04:02:38.573Z,16.31
2018-08-30T04:03:38.589Z,16.34
2018-08-30T04:04:38.605Z,16.33
2018-08-30T04:05:38.617Z,16.35
2018-08-30T04:06:38.632Z,16.38
2018-08-30T04:07:38.662Z,16.41
2018-08-30T04:08:38.662Z,16.35
2018-08-30T04:09:38.677Z,16.34
2018-08-30T04:10:38.694Z,16.42
2018-08-30T04:11:38.709Z,16.42
2018-08-30T04:12:38.723Z,16.33
2018-08-30T04:13:38.827Z,16.35
2018-08-30T04:14:38.758Z,16.31
2018-08-30T04:15:38.773Z,16.34
2018-08-30T04:16:38.783Z,16.34
2018-08-30T04:17:38.804Z,16.35
2018-08-30T04:18:38.818Z,16.43
2018-08-30T04:19:38.829Z,16.46
2018-08-30T04:20:38.844Z,16.38
2018-08-30T04:21:38.863Z,16.50
2018-08-30T04:22:38.880Z,16.49
2018-08-30T04:23:38.902Z,16.46
2018-08-30T04:24:38.906Z,16.53
2018-08-30T04:25:38.923Z,16.45
2018-08-30T04:26:39.044Z,16.50
2018-08-30T04:27:39.424Z,16.45
2018-08-30T04:28:38.991Z,16.49
2018-08-30T04:29:38.978Z,16.49
2018-08-30T04:30:38.999Z,16.49
2018-08-30T04:31:39.067Z,16.45
2018-08-30T04:32:39.039Z,16.41
2018-08-30T04:33:39.046Z,16.34
2018-08-30T04:34:39.060Z,16.45
2018-08-30T04:35:39.851Z,16.34
2018-08-30T04:36:39.090Z,16.39
2018-08-30T04:37:39.104Z,16.46
2018-08-30T04:38:39.426Z,16.39
2018-08-30T04:39:39.135Z,16.48
2018-08-30T04:40:39.147Z,16.50
2018-08-30T04:41:39.203Z,16.35
2018-08-30T04:42:39.202Z,16.38
2018-08-30T04:43:39.202Z,16.39
2018-08-30T04:44:39.218Z,16.35
2018-08-30T04:45:39.233Z,16.31
2018-08-30T04:46:39.245Z,16.38
2018-08-30T04:47:39.269Z,16.35
2018-08-30T04:48:39.267Z,16.35
2018-08-30T04:49:39.283Z,16.31
2018-08-30T04:50:39.421Z,16.35
2018-08-30T04:51:39.316Z,16.42
2018-08-30T04:52:39.327Z,16.35
2018-08-30T04:53:39.358Z,16.38
2018-08-30T04:54:39.358Z,16.42
2018-08-30T04:55:39.373Z,16.42
2018-08-30T04:56:39.387Z,16.39
2018-08-30T04:57:39.412Z,16.42
2018-08-30T04:58:39.501Z,16.38
2018-08-30T04:59:39.779Z,16.35
2018-08-30T05:00:39.612Z,16.48
2018-08-30T05:01:39.533Z,16.46
2018-08-30T05:02:39.963Z,16.45
2018-08-30T05:03:39.495Z,16.49
2018-08-30T05:04:39.596Z,16.46
2018-08-30T05:05:39.714Z,16.49
2018-08-30T05:06:40.003Z,16.46
2018-08-30T05:07:40.004Z,16.49
2018-08-30T05:08:40.321Z,16.49
2018-08-30T05:09:39.616Z,16.49
2018-08-30T05:10:39.831Z,16.38
2018-08-30T05:11:39.794Z,16.38
2018-08-30T05:12:39.797Z,16.48
2018-08-30T05:13:39.649Z,16.50
2018-08-30T05:14:39.697Z,16.48
2018-08-30T05:15:39.678Z,16.49
2018-08-30T05:16:39.867Z,16.50
2018-08-30T05:17:39.861Z,16.49
2018-08-30T05:18:39.749Z,16.61
2018-08-30T05:19:39.733Z,16.61
2018-08-30T05:20:39.749Z,16.52
2018-08-30T05:21:39.776Z,16.53
2018-08-30T05:22:39.784Z,16.52
2018-08-30T05:23:39.795Z,16.53
2018-08-30T05:24:39.819Z,16.60
2018-08-30T05:25:39.827Z,16.52
2018-08-30T05:26:39.847Z,16.53
2018-08-30T05:27:39.854Z,16.50
2018-08-30T05:28:39.881Z,16.52
2018-08-30T05:29:39.893Z,16.48
2018-08-30T05:30:39.899Z,16.52
2018-08-30T05:31:39.932Z,16.49
2018-08-30T05:32:40.032Z,16.50
2018-08-30T05:33:39.953Z,16.48
2018-08-30T05:34:39.965Z,16.58
2018-08-30T05:35:40.046Z,16.52
2018-08-30T05:36:40.340Z,16.49
2018-08-30T05:37:40.008Z,16.52
2018-08-30T05:38:40.024Z,16.60
2018-08-30T05:39:40.039Z,16.60
2018-08-30T05:40:40.053Z,16.61
2018-08-30T05:41:40.070Z,16.61
2018-08-30T05:42:40.086Z,16.61
2018-08-30T05:43:40.096Z,16.67
2018-08-30T05:44:40.121Z,16.61
2018-08-30T05:45:40.125Z,16.66
2018-08-30T05:46:40.140Z,16.56
2018-08-30T05:47:40.195Z,16.53
2018-08-30T05:48:40.446Z,16.58
2018-08-30T05:49:40.185Z,16.58
2018-08-30T05:50:40.802Z,16.49
2018-08-30T05:51:40.659Z,16.60
2018-08-30T05:52:40.682Z,16.61
2018-08-30T05:53:40.250Z,16.63
2018-08-30T05:54:40.266Z,16.58
2018-08-30T05:55:40.349Z,16.60
2018-08-30T05:56:40.294Z,16.64
2018-08-30T05:57:40.319Z,16.67
2018-08-30T05:58:40.334Z,16.66
2018-08-30T05:59:40.342Z,16.73
2018-08-30T06:00:40.353Z,16.71
2018-08-30T06:01:40.400Z,16.73
2018-08-30T06:02:40.388Z,16.67
2018-08-30T06:03:40.711Z,16.71
2018-08-30T06:04:40.417Z,16.73
2018-08-30T06:05:40.738Z,16.76
2018-08-30T06:06:40.508Z,16.78
2018-08-30T06:07:40.462Z,16.85
2018-08-30T06:08:40.485Z,16.78
2018-08-30T06:09:40.506Z,16.67
2018-08-30T06:10:40.508Z,16.71
2018-08-30T06:11:40.525Z,16.81
2018-08-30T06:13:40.558Z,16.93
2018-08-30T06:14:40.574Z,16.85
2018-08-30T06:15:40.622Z,16.83
2018-08-30T06:16:40.594Z,16.85
2018-08-30T06:17:41.431Z,16.88
2018-08-30T06:18:41.267Z,16.81
2018-08-30T06:19:41.355Z,16.91
2018-08-30T06:20:40.653Z,16.67
2018-08-30T06:21:40.673Z,16.78
2018-08-30T06:22:40.689Z,16.81
2018-08-30T06:23:40.704Z,16.85
2018-08-30T06:24:41.425Z,16.83
2018-08-30T06:25:40.722Z,16.96
2018-08-30T06:26:40.755Z,16.88
2018-08-30T06:27:40.754Z,16.94
2018-08-30T06:28:40.794Z,16.96
2018-08-30T06:29:40.953Z,16.91
2018-08-30T06:30:40.798Z,16.98
2018-08-30T06:31:40.816Z,16.79
2018-08-30T06:32:40.872Z,16.82
2018-08-30T06:33:40.856Z,16.79
2018-08-30T06:34:40.937Z,16.94
2018-08-30T06:35:40.878Z,16.91
2018-08-30T06:36:40.897Z,17.00
2018-08-30T06:37:40.919Z,17.06
2018-08-30T06:38:40.942Z,17.04
2018-08-30T06:39:41.143Z,17.01
2018-08-30T06:40:41.221Z,16.85
2018-08-30T06:41:40.966Z,16.79
2018-08-30T06:42:41.648Z,16.75
2018-08-30T06:43:40.999Z,16.81
2018-08-30T06:44:41.067Z,16.79
2018-08-30T06:45:41.305Z,16.78
2018-08-30T06:46:41.048Z,16.91
2018-08-30T06:47:41.060Z,16.96
2018-08-30T06:48:41.311Z,16.91
2018-08-30T06:49:41.772Z,16.94
2018-08-30T06:50:41.345Z,16.93
2018-08-30T06:51:41.310Z,16.89
2018-08-30T06:52:41.478Z,17.00
2018-08-30T06:53:41.169Z,17.04
2018-08-30T06:54:41.500Z,17.07
2018-08-30T06:55:41.846Z,17.16
2018-08-30T06:56:41.719Z,17.25
2018-08-30T06:57:41.873Z,17.15
2018-08-30T06:58:41.248Z,17.31
2018-08-30T06:59:41.270Z,17.33
2018-08-30T07:00:41.460Z,17.41
2018-08-30T07:01:41.277Z,17.44
2018-08-30T07:02:41.290Z,17.33
2018-08-30T07:03:41.954Z,17.15
2018-08-30T07:04:41.883Z,17.22
2018-08-30T07:05:41.396Z,17.19
2018-08-30T07:06:41.467Z,17.18
2018-08-30T07:07:41.574Z,17.06
2018-08-30T07:08:41.687Z,17.06
2018-08-30T07:09:41.396Z,17.14
2018-08-30T07:10:41.415Z,17.07
2018-08-30T07:11:41.426Z,17.04
2018-08-30T07:12:41.442Z,17.08
2018-08-30T07:13:41.523Z,17.04
2018-08-30T07:14:41.492Z,17.14
2018-08-30T07:15:41.488Z,17.18
2018-08-30T07:16:41.506Z,17.16
2018-08-30T07:17:42.070Z,17.16
2018-08-30T07:18:41.534Z,17.21
2018-08-30T07:19:41.561Z,17.21
2018-08-30T07:20:41.567Z,17.16
2018-08-30T07:22:41.772Z,17.18
2018-08-30T07:23:42.480Z,17.23
2018-08-30T07:24:42.144Z,17.33
2018-08-30T07:25:41.657Z,17.46
2018-08-30T07:26:41.758Z,17.49
2018-08-30T07:27:41.670Z,17.48
2018-08-30T07:28:41.725Z,17.62
2018-08-30T07:29:42.868Z,17.68
2018-08-30T07:30:41.719Z,17.66
2018-08-30T07:31:41.736Z,17.62
2018-08-30T07:32:41.750Z,17.70
2018-08-30T07:33:41.775Z,17.72
2018-08-30T07:34:41.852Z,17.72
2018-08-30T07:35:41.811Z,17.62
2018-08-30T07:36:41.825Z,17.43
2018-08-30T07:37:41.830Z,17.31
2018-08-30T07:38:43.802Z,17.36
2018-08-30T07:39:41.878Z,17.38
2018-08-30T07:40:41.975Z,17.41
2018-08-30T07:41:41.995Z,17.33
2018-08-30T07:42:41.903Z,17.31
2018-08-30T07:43:41.918Z,17.31
2018-08-30T07:44:42.074Z,17.30
2018-08-30T07:45:41.955Z,17.37
2018-08-30T07:46:41.966Z,17.46
2018-08-30T07:47:41.987Z,17.66
2018-08-30T07:48:42.032Z,17.77
2018-08-30T07:49:42.028Z,17.77
2018-08-30T07:50:42.044Z,17.78
2018-08-30T07:51:42.047Z,17.87
2018-08-30T07:52:42.145Z,17.81
2018-08-30T07:53:42.077Z,17.86
2018-08-30T07:54:42.188Z,17.87
2018-08-30T07:55:42.107Z,17.87
2018-08-30T07:56:42.124Z,17.95
2018-08-30T07:57:42.137Z,17.89
2018-08-30T07:58:42.440Z,17.77
2018-08-30T07:59:42.481Z,17.79
2018-08-30T08:01:42.258Z,17.86
2018-08-30T08:02:42.221Z,17.93
2018-08-30T08:03:42.229Z,17.95
2018-08-30T08:04:44.567Z,17.95
2018-08-30T08:05:42.287Z,17.92
2018-08-30T08:06:42.273Z,17.86
2018-08-30T08:07:42.290Z,17.96
2018-08-30T08:08:42.304Z,18.00
2018-08-30T08:09:42.547Z,18.11
2018-08-30T08:10:42.570Z,18.12
2018-08-30T08:11:42.571Z,18.02
2018-08-30T08:12:42.993Z,18.02
2018-08-30T08:14:43.022Z,17.70
2018-08-30T08:15:42.413Z,17.86
2018-08-30T08:16:42.429Z,17.77
2018-08-30T08:17:44.749Z,17.81
2018-08-30T08:18:42.460Z,17.92
2018-08-30T08:19:42.481Z,17.96
2018-08-30T08:20:42.489Z,17.95
2018-08-30T08:21:42.506Z,17.93
2018-08-30T08:22:42.527Z,18.15
2018-08-30T08:23:42.541Z,18.15
2018-08-30T08:24:42.551Z,18.25
2018-08-30T08:25:42.572Z,18.30
2018-08-30T08:26:42.599Z,18.37
2018-08-30T08:27:42.626Z,18.41
2018-08-30T08:28:42.612Z,18.44
2018-08-30T08:29:44.432Z,18.52
2018-08-30T08:30:42.650Z,18.51
2018-08-30T08:31:42.661Z,18.54
2018-08-30T08:32:42.677Z,18.58
2018-08-30T08:33:42.692Z,18.45
2018-08-30T08:34:42.718Z,18.55
2018-08-30T08:35:42.721Z,18.54
2018-08-30T08:36:42.755Z,18.55
2018-08-30T08:37:42.753Z,18.52
2018-08-30T08:38:42.769Z,18.57
2018-08-30T08:39:42.787Z,18.55
2018-08-30T08:40:42.802Z,18.54
2018-08-30T08:41:42.819Z,18.62
2018-08-30T08:42:42.841Z,18.60
2018-08-30T08:43:42.851Z,18.54
2018-08-30T08:44:43.313Z,18.55
2018-08-30T08:45:43.267Z,18.67
2018-08-30T08:46:43.011Z,18.60
2018-08-30T08:47:43.070Z,18.78
2018-08-30T08:48:43.126Z,18.87
2018-08-30T08:49:43.387Z,18.75
2018-08-30T08:50:43.294Z,18.75
2018-08-30T08:51:43.001Z,18.66
2018-08-30T08:52:42.993Z,18.65
2018-08-30T08:53:43.013Z,18.63
2018-08-30T08:54:43.024Z,18.52
2018-08-30T08:55:43.035Z,18.58
2018-08-30T08:56:43.179Z,18.67
2018-08-30T08:57:43.066Z,18.73
2018-08-30T08:58:43.094Z,18.81
2018-08-30T08:59:43.100Z,18.73
2018-08-30T09:00:43.646Z,18.76
2018-08-30T09:01:43.967Z,18.78
2018-08-30T09:02:43.143Z,18.70
2018-08-30T09:03:43.161Z,18.81
2018-08-30T09:04:43.201Z,18.70
2018-08-30T09:05:43.189Z,18.65
2018-08-30T09:06:43.292Z,18.69
2018-08-30T09:07:43.347Z,18.66
2018-08-30T09:08:44.159Z,18.60
2018-08-30T09:09:43.272Z,18.70
2018-08-30T09:10:43.270Z,18.63
2018-08-30T09:12:44.401Z,18.81
2018-08-30T09:13:43.317Z,18.98
2018-08-30T09:14:43.331Z,18.99
2018-08-30T09:15:43.345Z,18.98
2018-08-30T09:16:43.363Z,18.99
2018-08-30T09:17:43.378Z,19.06
2018-08-30T09:18:43.395Z,19.26
2018-08-30T09:19:43.411Z,19.32
2018-08-30T09:20:43.428Z,19.21
2018-08-30T09:21:43.449Z,19.16
2018-08-30T09:22:43.459Z,19.11
2018-08-30T09:23:43.792Z,19.14
2018-08-30T09:24:44.338Z,19.18
2018-08-30T09:25:43.501Z,19.26
2018-08-30T09:26:43.544Z,19.16
2018-08-30T09:27:43.539Z,19.26
2018-08-30T09:28:43.556Z,19.44
2018-08-30T09:29:44.008Z,19.54
2018-08-30T09:30:43.580Z,19.55
2018-08-30T09:31:43.601Z,19.51
2018-08-30T09:32:43.614Z,19.65
2018-08-30T09:33:43.670Z,19.68
2018-08-30T09:34:43.645Z,19.65
2018-08-30T09:35:43.700Z,19.62
2018-08-30T09:36:43.680Z,19.62
2018-08-30T09:37:43.695Z,19.55
2018-08-30T09:38:43.724Z,19.59
2018-08-30T09:39:43.736Z,19.46
2018-08-30T09:40:43.743Z,19.41
2018-08-30T09:41:43.773Z,19.46
2018-08-30T09:42:43.781Z,19.40
2018-08-30T09:43:43.841Z,19.26
2018-08-30T09:44:43.877Z,19.16
2018-08-30T09:45:43.826Z,19.21
2018-08-30T09:46:43.840Z,19.23
2018-08-30T09:47:43.935Z,19.48
2018-08-30T09:48:43.918Z,19.54
2018-08-30T09:49:43.949Z,19.74
2018-08-30T09:50:43.903Z,19.71
2018-08-30T09:51:44.237Z,19.63
2018-08-30T09:52:43.935Z,19.62
2018-08-30T09:53:43.953Z,19.55
2018-08-30T09:54:43.966Z,19.33
2018-08-30T09:55:44.050Z,19.26
2018-08-30T09:56:44.131Z,19.31
2018-08-30T09:57:44.024Z,19.47
2018-08-30T09:58:44.031Z,19.51
2018-08-30T09:59:44.052Z,19.47
2018-08-30T10:00:44.077Z,19.58
2018-08-30T10:01:44.084Z,19.63
2018-08-30T10:02:44.105Z,19.74
2018-08-30T10:03:44.280Z,19.68
2018-08-30T10:04:44.233Z,19.73
2018-08-30T10:05:44.141Z,19.74
2018-08-30T10:06:44.181Z,19.94
2018-08-30T10:07:44.178Z,19.84
2018-08-30T10:08:44.292Z,19.88
2018-08-30T10:09:44.514Z,19.94
2018-08-30T10:10:44.229Z,19.91
2018-08-30T10:11:44.240Z,19.94
2018-08-30T10:12:44.367Z,20.06
2018-08-30T10:13:44.336Z,20.10
2018-08-30T10:14:44.365Z,19.88
2018-08-30T10:15:44.354Z,19.68
2018-08-30T10:16:44.569Z,19.50
2018-08-30T10:17:45.714Z,19.43
2018-08-30T10:18:44.554Z,19.26
2018-08-30T10:19:44.642Z,19.44
2018-08-30T10:20:44.379Z,19.46
2018-08-30T10:21:45.607Z,19.36
2018-08-30T10:22:44.786Z,19.51
2018-08-30T10:23:45.183Z,19.65
2018-08-30T10:24:44.596Z,19.80
2018-08-30T10:25:44.600Z,19.99
2018-08-30T10:26:44.542Z,19.95
2018-08-30T10:27:44.500Z,20.10
2018-08-30T10:32:45.345Z,20.03
2018-08-30T10:33:44.655Z,20.16
2018-08-30T10:34:44.605Z,19.96
2018-08-30T10:35:44.635Z,20.02
2018-08-30T10:36:44.635Z,20.14
2018-08-30T10:37:44.719Z,20.14
2018-08-30T10:38:44.671Z,20.33
2018-08-30T10:39:44.709Z,20.32
2018-08-30T10:40:44.731Z,20.32
2018-08-30T10:41:44.721Z,20.24
2018-08-30T10:42:45.036Z,20.38
2018-08-30T10:43:44.796Z,20.18
2018-08-30T10:44:44.769Z,20.21
2018-08-30T10:45:45.128Z,20.32
2018-08-30T10:46:44.804Z,20.06
2018-08-30T10:47:44.812Z,19.99
2018-08-30T10:48:44.828Z,19.94
2018-08-30T10:49:44.863Z,20.11
2018-08-30T10:50:44.869Z,20.23
2018-08-30T10:51:44.875Z,20.31
2018-08-30T10:52:44.901Z,20.32
2018-08-30T10:53:44.915Z,20.36
2018-08-30T10:54:44.936Z,20.42
2018-08-30T10:55:44.970Z,20.57
2018-08-30T10:56:44.958Z,20.55
2018-08-30T10:57:44.977Z,20.52
2018-08-30T10:58:44.989Z,20.57
2018-08-30T10:59:45.007Z,20.58
2018-08-30T11:00:45.023Z,20.72
2018-08-30T11:01:45.433Z,20.69
2018-08-30T11:02:46.811Z,20.70
2018-08-30T11:03:45.099Z,20.58
2018-08-30T11:04:45.093Z,20.73
2018-08-30T11:05:45.104Z,20.85
2018-08-30T11:06:45.164Z,20.85
2018-08-30T11:07:45.328Z,21.01
2018-08-30T11:08:45.173Z,20.99
2018-08-30T11:09:45.414Z,21.17
2018-08-30T11:10:45.243Z,21.32
2018-08-30T11:11:45.246Z,21.50
2018-08-30T11:12:45.256Z,21.52
2018-08-30T11:13:45.241Z,21.52
2018-08-30T11:14:45.254Z,21.54
2018-08-30T11:15:45.266Z,21.46
2018-08-30T11:16:45.281Z,21.46
2018-08-30T11:17:45.304Z,21.47
2018-08-30T11:18:45.311Z,21.28
2018-08-30T11:19:45.336Z,21.09
2018-08-30T11:20:45.408Z,21.04
2018-08-30T11:21:45.371Z,21.04
2018-08-30T11:22:45.381Z,21.04
2018-08-30T11:23:45.415Z,20.91
2018-08-30T11:24:45.416Z,20.97
2018-08-30T11:25:45.434Z,21.12
2018-08-30T11:26:45.455Z,21.12
2018-08-30T11:27:45.467Z,21.34
2018-08-30T11:28:45.481Z,21.31
2018-08-30T11:29:45.498Z,21.40
2018-08-30T11:30:45.537Z,21.56
2018-08-30T11:31:45.553Z,21.61
2018-08-30T11:32:45.554Z,21.54
2018-08-30T11:33:45.569Z,21.38
2018-08-30T11:34:45.605Z,21.52
2018-08-30T11:35:45.604Z,21.52
2018-08-30T11:36:45.689Z,21.62
2018-08-30T11:37:45.678Z,21.64
2018-08-30T11:38:45.652Z,21.64
2018-08-30T11:39:45.667Z,21.53
2018-08-30T11:40:45.682Z,21.46
2018-08-30T11:41:45.755Z,21.38
2018-08-30T11:42:45.711Z,21.25
2018-08-30T11:43:45.728Z,21.32
2018-08-30T11:44:45.744Z,21.37
2018-08-30T11:45:45.762Z,21.29
2018-08-30T11:46:45.782Z,21.44
2018-08-30T11:47:45.805Z,21.46
2018-08-30T11:48:45.811Z,21.44
2018-08-30T11:49:45.827Z,21.49
2018-08-30T11:50:45.847Z,21.43
2018-08-30T11:51:45.951Z,21.49
2018-08-30T11:52:45.895Z,21.56
2018-08-30T11:53:45.897Z,21.65
2018-08-30T11:54:45.913Z,21.77
2018-08-30T11:55:45.927Z,21.86
2018-08-30T11:56:45.948Z,21.94
2018-08-30T11:57:45.966Z,21.84
2018-08-30T11:58:45.983Z,21.75
2018-08-30T11:59:46.007Z,21.61
2018-08-30T12:00:46.028Z,21.50
2018-08-30T12:01:46.031Z,21.46
2018-08-30T12:02:46.045Z,21.38
2018-08-30T12:03:46.063Z,21.54
2018-08-30T12:04:46.082Z,21.35
2018-08-30T12:05:46.101Z,21.03
2018-08-30T12:06:46.144Z,21.06
2018-08-30T12:07:46.176Z,20.99
2018-08-30T12:08:46.154Z,21.03
2018-08-30T12:09:46.171Z,21.12
2018-08-30T12:10:46.199Z,21.31
2018-08-30T12:11:46.206Z,21.40
2018-08-30T12:13:46.236Z,21.67
2018-08-30T12:14:46.320Z,21.71
2018-08-30T12:15:46.269Z,21.86
2018-08-30T12:16:46.286Z,21.98
2018-08-30T12:17:46.307Z,22.06
2018-08-30T12:18:46.340Z,22.24
2018-08-30T12:19:46.337Z,22.40
2018-08-30T12:20:46.522Z,22.52
2018-08-30T12:22:47.313Z,21.91
2018-08-30T12:23:46.986Z,21.96
2018-08-30T12:24:46.423Z,21.91
2018-08-30T12:25:47.739Z,22.14
2018-08-30T12:26:46.452Z,22.22
2018-08-30T12:27:46.477Z,22.37
2018-08-30T12:28:46.663Z,22.42
2018-08-30T12:29:46.521Z,22.54
2018-08-30T12:30:46.574Z,22.60
2018-08-30T12:31:47.122Z,22.61
2018-08-30T12:32:46.602Z,22.54
2018-08-30T12:33:46.639Z,22.55
2018-08-30T12:34:46.723Z,22.40
2018-08-30T12:35:46.754Z,22.58
2018-08-30T12:36:47.664Z,22.79
2018-08-30T12:37:46.658Z,22.98
2018-08-30T12:38:47.141Z,22.88
2018-08-30T12:39:47.051Z,22.77
2018-08-30T12:40:46.719Z,22.73
2018-08-30T12:41:47.208Z,22.57
2018-08-30T12:42:46.789Z,22.47
2018-08-30T12:43:46.833Z,22.31
2018-08-30T12:44:46.817Z,22.07
2018-08-30T12:45:46.818Z,22.22
2018-08-30T12:46:46.835Z,22.37
2018-08-30T12:47:46.819Z,22.54
2018-08-30T12:48:46.974Z,22.62
2018-08-30T12:49:46.905Z,22.57
2018-08-30T12:50:47.043Z,22.67
2018-08-30T12:51:47.076Z,22.60
2018-08-30T12:53:47.202Z,22.62
2018-08-30T12:54:47.016Z,22.61
2018-08-30T12:55:47.136Z,22.60
2018-08-30T12:56:47.139Z,22.35
2018-08-30T12:57:47.116Z,22.14
2018-08-30T12:58:47.212Z,22.05
2018-08-30T12:59:47.165Z,21.98
2018-08-30T13:00:47.209Z,21.94
2018-08-30T13:01:47.224Z,21.69
2018-08-30T13:02:47.363Z,21.29
2018-08-30T13:03:48.510Z,20.85
2018-08-30T13:04:47.326Z,20.64